sensor_id;sensor_type;location;lat;lon;timestamp;temperature;humidity
25468;DHT22;13384;24.794;110.498;2023-07-16T00:00:57;28.00;99.90
25468;DHT22;13384;24.794;110.498;2023-07-16T00:03:28;28.00;99.90
25468;DHT22;13384;24.794;110.498;2023-07-16T00:06:00;28.10;99.90
25468;DHT22;13384;24.794;110.498;2023-07-16T00:08:31;28.10;99.90
25468;DHT22;13384;24.794;110.498;2023-07-16T00:11:03;28.10;99.90
25468;DHT22;13384;24.794;110.498;2023-07-16T00:13:35;28.20;99.90
25468;DHT22;13384;24.794;110.498;2023-07-16T00:16:07;28.30;99.90
25468;DHT22;13384;24.794;110.498;2023-07-16T00:18:38;28.30;99.90
25468;DHT22;13384;24.794;110.498;2023-07-16T00:21:09;28.30;99.90
25468;DHT22;13384;24.794;110.498;2023-07-16T00:23:41;28.40;99.90
25468;DHT22;13384;24.794;110.498;2023-07-16T00:26:13;28.50;99.90
25468;DHT22;13384;24.794;110.498;2023-07-16T00:28:45;28.50;99.90
25468;DHT22;13384;24.794;110.498;2023-07-16T00:31:16;28.60;99.90
25468;DHT22;13384;24.794;110.498;2023-07-16T00:33:48;28.70;99.90
25468;DHT22;13384;24.794;110.498;2023-07-16T00:36:19;28.80;99.90
25468;DHT22;13384;24.794;110.498;2023-07-16T00:38:57;28.80;99.90
25468;DHT22;13384;24.794;110.498;2023-07-16T00:41:28;28.70;99.90
25468;DHT22;13384;24.794;110.498;2023-07-16T00:44:14;28.80;99.90
25468;DHT22;13384;24.794;110.498;2023-07-16T00:46:45;28.80;99.90
25468;DHT22;13384;24.794;110.498;2023-07-16T00:49:18;29.00;99.90
25468;DHT22;13384;24.794;110.498;2023-07-16T00:51:53;29.00;99.90
25468;DHT22;13384;24.794;110.498;2023-07-16T00:54:26;29.10;99.90
25468;DHT22;13384;24.794;110.498;2023-07-16T00:56:58;29.20;99.90
25468;DHT22;13384;24.794;110.498;2023-07-16T00:59:30;29.30;99.90
25468;DHT22;13384;24.794;110.498;2023-07-16T01:02:01;29.20;99.90
25468;DHT22;13384;24.794;110.498;2023-07-16T01:04:33;29.30;99.90
25468;DHT22;13384;24.794;110.498;2023-07-16T01:07:09;29.40;99.90
25468;DHT22;13384;24.794;110.498;2023-07-16T01:09:43;29.40;99.90
25468;DHT22;13384;24.794;110.498;2023-07-16T01:12:15;29.30;99.90
25468;DHT22;13384;24.794;110.498;2023-07-16T01:14:47;29.30;99.90
25468;DHT22;13384;24.794;110.498;2023-07-16T01:17:19;29.40;99.90
25468;DHT22;13384;24.794;110.498;2023-07-16T01:20:01;29.50;99.90
25468;DHT22;13384;24.794;110.498;2023-07-16T01:31:07;29.80;99.90
25468;DHT22;13384;24.794;110.498;2023-07-16T01:33:41;29.80;99.90
25468;DHT22;13384;24.794;110.498;2023-07-16T01:36:16;29.90;99.90
25468;DHT22;13384;24.794;110.498;2023-07-16T01:38:48;30.00;99.90
25468;DHT22;13384;24.794;110.498;2023-07-16T01:41:20;30.00;99.90
25468;DHT22;13384;24.794;110.498;2023-07-16T01:43:53;30.10;99.90
25468;DHT22;13384;24.794;110.498;2023-07-16T01:46:25;30.00;99.90
25468;DHT22;13384;24.794;110.498;2023-07-16T01:48:57;30.10;99.90
25468;DHT22;13384;24.794;110.498;2023-07-16T01:51:28;30.20;99.90
25468;DHT22;13384;24.794;110.498;2023-07-16T01:53:59;30.20;99.90
25468;DHT22;13384;24.794;110.498;2023-07-16T01:56:31;30.20;99.90
25468;DHT22;13384;24.794;110.498;2023-07-16T01:59:04;30.30;99.90
25468;DHT22;13384;24.794;110.498;2023-07-16T02:01:35;30.30;99.90
25468;DHT22;13384;24.794;110.498;2023-07-16T02:04:07;30.40;99.90
25468;DHT22;13384;24.794;110.498;2023-07-16T02:06:38;30.50;99.90
25468;DHT22;13384;24.794;110.498;2023-07-16T02:09:11;30.60;99.90
25468;DHT22;13384;24.794;110.498;2023-07-16T02:11:43;30.70;99.90
25468;DHT22;13384;24.794;110.498;2023-07-16T02:14:15;30.80;99.90
25468;DHT22;13384;24.794;110.498;2023-07-16T02:16:47;30.90;99.90
25468;DHT22;13384;24.794;110.498;2023-07-16T02:19:19;30.90;99.90
25468;DHT22;13384;24.794;110.498;2023-07-16T02:21:50;31.00;99.90
25468;DHT22;13384;24.794;110.498;2023-07-16T02:24:21;31.00;99.90
25468;DHT22;13384;24.794;110.498;2023-07-16T02:26:54;31.00;99.90
25468;DHT22;13384;24.794;110.498;2023-07-16T02:29:43;31.10;99.90
25468;DHT22;13384;24.794;110.498;2023-07-16T02:32:15;31.20;99.90
25468;DHT22;13384;24.794;110.498;2023-07-16T02:34:47;31.20;99.90
25468;DHT22;13384;24.794;110.498;2023-07-16T02:37:19;31.30;99.90
25468;DHT22;13384;24.794;110.498;2023-07-16T02:40:05;31.50;99.90
25468;DHT22;13384;24.794;110.498;2023-07-16T02:42:37;31.80;99.90
25468;DHT22;13384;24.794;110.498;2023-07-16T02:45:09;31.70;99.90
25468;DHT22;13384;24.794;110.498;2023-07-16T02:47:41;31.80;99.90
25468;DHT22;13384;24.794;110.498;2023-07-16T02:50:12;31.80;99.90
25468;DHT22;13384;24.794;110.498;2023-07-16T02:52:43;32.00;99.90
25468;DHT22;13384;24.794;110.498;2023-07-16T02:55:27;32.20;99.90
25468;DHT22;13384;24.794;110.498;2023-07-16T02:57:59;32.30;99.90
25468;DHT22;13384;24.794;110.498;2023-07-16T03:00:34;32.30;99.90
25468;DHT22;13384;24.794;110.498;2023-07-16T03:03:06;32.40;99.90
25468;DHT22;13384;24.794;110.498;2023-07-16T03:05:45;32.40;99.90
25468;DHT22;13384;24.794;110.498;2023-07-16T03:08:18;32.30;99.90
25468;DHT22;13384;24.794;110.498;2023-07-16T03:10:59;32.50;99.90
25468;DHT22;13384;24.794;110.498;2023-07-16T03:13:31;32.60;99.90
25468;DHT22;13384;24.794;110.498;2023-07-16T03:16:02;32.80;99.90
25468;DHT22;13384;24.794;110.498;2023-07-16T03:18:33;32.90;99.90
25468;DHT22;13384;24.794;110.498;2023-07-16T03:21:05;32.90;99.30
25468;DHT22;13384;24.794;110.498;2023-07-16T03:23:37;32.90;99.40
25468;DHT22;13384;24.794;110.498;2023-07-16T03:26:09;33.00;98.40
25468;DHT22;13384;24.794;110.498;2023-07-16T03:28:41;33.00;99.20
25468;DHT22;13384;24.794;110.498;2023-07-16T03:31:15;33.00;98.20
25468;DHT22;13384;24.794;110.498;2023-07-16T03:33:49;33.30;98.90
25468;DHT22;13384;24.794;110.498;2023-07-16T03:36:21;33.40;98.60
25468;DHT22;13384;24.794;110.498;2023-07-16T03:38:52;33.60;99.90
25468;DHT22;13384;24.794;110.498;2023-07-16T03:41:27;33.80;99.60
25468;DHT22;13384;24.794;110.498;2023-07-16T03:43:59;33.60;98.80
25468;DHT22;13384;24.794;110.498;2023-07-16T03:46:33;33.50;99.60
25468;DHT22;13384;24.794;110.498;2023-07-16T03:49:07;33.60;98.70
25468;DHT22;13384;24.794;110.498;2023-07-16T03:51:40;33.90;96.30
25468;DHT22;13384;24.794;110.498;2023-07-16T03:54:24;34.00;95.80
25468;DHT22;13384;24.794;110.498;2023-07-16T03:56:55;34.10;94.90
25468;DHT22;13384;24.794;110.498;2023-07-16T03:59:26;34.20;96.30
25468;DHT22;13384;24.794;110.498;2023-07-16T04:01:58;34.30;95.80
25468;DHT22;13384;24.794;110.498;2023-07-16T04:04:29;34.40;94.80
25468;DHT22;13384;24.794;110.498;2023-07-16T04:07:00;34.50;93.20
25468;DHT22;13384;24.794;110.498;2023-07-16T04:09:32;34.60;92.90
25468;DHT22;13384;24.794;110.498;2023-07-16T04:12:04;34.40;93.70
25468;DHT22;13384;24.794;110.498;2023-07-16T04:14:36;34.50;94.90
25468;DHT22;13384;24.794;110.498;2023-07-16T04:17:08;34.90;96.00
25468;DHT22;13384;24.794;110.498;2023-07-16T04:19:40;34.70;94.90
25468;DHT22;13384;24.794;110.498;2023-07-16T04:22:12;34.80;94.50
25468;DHT22;13384;24.794;110.498;2023-07-16T04:24:44;34.40;94.50
25468;DHT22;13384;24.794;110.498;2023-07-16T04:27:15;34.30;94.90
25468;DHT22;13384;24.794;110.498;2023-07-16T04:29:46;34.50;95.40
25468;DHT22;13384;24.794;110.498;2023-07-16T04:32:19;34.70;96.10
25468;DHT22;13384;24.794;110.498;2023-07-16T04:34:51;34.60;94.80
25468;DHT22;13384;24.794;110.498;2023-07-16T04:37:22;34.50;94.50
25468;DHT22;13384;24.794;110.498;2023-07-16T04:39:54;34.60;94.40
25468;DHT22;13384;24.794;110.498;2023-07-16T04:42:25;34.70;93.60
25468;DHT22;13384;24.794;110.498;2023-07-16T04:45:03;34.70;93.20
25468;DHT22;13384;24.794;110.498;2023-07-16T04:47:35;34.90;94.10
25468;DHT22;13384;24.794;110.498;2023-07-16T04:50:07;35.10;92.50
25468;DHT22;13384;24.794;110.498;2023-07-16T04:52:41;35.10;91.30
25468;DHT22;13384;24.794;110.498;2023-07-16T04:55:13;34.80;91.10
25468;DHT22;13384;24.794;110.498;2023-07-16T04:57:45;34.80;92.50
25468;DHT22;13384;24.794;110.498;2023-07-16T05:00:17;35.10;92.60
25468;DHT22;13384;24.794;110.498;2023-07-16T05:03:00;35.40;91.90
25468;DHT22;13384;24.794;110.498;2023-07-16T05:05:36;35.50;90.20
25468;DHT22;13384;24.794;110.498;2023-07-16T05:08:10;35.70;91.70
25468;DHT22;13384;24.794;110.498;2023-07-16T05:10:41;35.80;88.50
25468;DHT22;13384;24.794;110.498;2023-07-16T05:13:12;35.70;91.30
25468;DHT22;13384;24.794;110.498;2023-07-16T05:15:45;35.70;90.20
25468;DHT22;13384;24.794;110.498;2023-07-16T05:18:30;35.80;90.30
25468;DHT22;13384;24.794;110.498;2023-07-16T05:21:02;35.60;88.00
25468;DHT22;13384;24.794;110.498;2023-07-16T05:23:33;35.40;88.20
25468;DHT22;13384;24.794;110.498;2023-07-16T05:26:17;35.40;90.40
25468;DHT22;13384;24.794;110.498;2023-07-16T05:28:49;35.90;89.10
25468;DHT22;13384;24.794;110.498;2023-07-16T05:31:20;36.10;88.40
25468;DHT22;13384;24.794;110.498;2023-07-16T05:33:52;36.20;87.40
25468;DHT22;13384;24.794;110.498;2023-07-16T05:36:23;36.30;88.10
25468;DHT22;13384;24.794;110.498;2023-07-16T05:38:55;36.50;88.30
25468;DHT22;13384;24.794;110.498;2023-07-16T05:41:26;36.50;87.50
25468;DHT22;13384;24.794;110.498;2023-07-16T05:44:04;36.80;86.30
25468;DHT22;13384;24.794;110.498;2023-07-16T05:46:36;37.20;84.70
25468;DHT22;13384;24.794;110.498;2023-07-16T05:49:07;37.40;83.60
25468;DHT22;13384;24.794;110.498;2023-07-16T05:51:39;37.20;83.90
25468;DHT22;13384;24.794;110.498;2023-07-16T05:54:10;36.80;83.60
25468;DHT22;13384;24.794;110.498;2023-07-16T05:56:44;36.40;82.00
25468;DHT22;13384;24.794;110.498;2023-07-16T05:59:15;36.00;83.30
25468;DHT22;13384;24.794;110.498;2023-07-16T06:01:47;35.70;85.90
25468;DHT22;13384;24.794;110.498;2023-07-16T06:04:18;36.00;83.70
25468;DHT22;13384;24.794;110.498;2023-07-16T06:06:50;36.10;83.60
25468;DHT22;13384;24.794;110.498;2023-07-16T06:09:21;36.50;85.10
25468;DHT22;13384;24.794;110.498;2023-07-16T06:11:56;36.80;85.40
25468;DHT22;13384;24.794;110.498;2023-07-16T06:14:27;37.00;82.80
25468;DHT22;13384;24.794;110.498;2023-07-16T06:16:59;37.20;83.30
25468;DHT22;13384;24.794;110.498;2023-07-16T06:19:30;37.00;81.40
25468;DHT22;13384;24.794;110.498;2023-07-16T06:22:02;37.00;83.70
25468;DHT22;13384;24.794;110.498;2023-07-16T06:24:34;36.90;83.20
25468;DHT22;13384;24.794;110.498;2023-07-16T06:27:06;36.60;83.00
25468;DHT22;13384;24.794;110.498;2023-07-16T06:29:37;36.70;84.30
25468;DHT22;13384;24.794;110.498;2023-07-16T06:32:09;36.60;84.10
25468;DHT22;13384;24.794;110.498;2023-07-16T06:34:40;36.70;84.70
25468;DHT22;13384;24.794;110.498;2023-07-16T06:37:12;36.60;85.20
25468;DHT22;13384;24.794;110.498;2023-07-16T06:39:48;36.60;86.00
25468;DHT22;13384;24.794;110.498;2023-07-16T06:42:19;36.30;86.30
25468;DHT22;13384;24.794;110.498;2023-07-16T06:44:51;36.10;87.30
25468;DHT22;13384;24.794;110.498;2023-07-16T06:47:29;35.90;89.60
25468;DHT22;13384;24.794;110.498;2023-07-16T06:50:01;35.90;88.60
25468;DHT22;13384;24.794;110.498;2023-07-16T06:52:45;36.10;90.00
25468;DHT22;13384;24.794;110.498;2023-07-16T06:55:18;36.30;87.60
25468;DHT22;13384;24.794;110.498;2023-07-16T06:57:49;36.20;86.60
25468;DHT22;13384;24.794;110.498;2023-07-16T07:00:24;36.10;87.40
25468;DHT22;13384;24.794;110.498;2023-07-16T07:02:55;35.90;87.10
25468;DHT22;13384;24.794;110.498;2023-07-16T07:05:27;35.80;89.70
25468;DHT22;13384;24.794;110.498;2023-07-16T07:07:58;35.90;91.70
25468;DHT22;13384;24.794;110.498;2023-07-16T07:10:30;36.20;90.70
25468;DHT22;13384;24.794;110.498;2023-07-16T07:13:03;36.40;89.20
25468;DHT22;13384;24.794;110.498;2023-07-16T07:15:34;36.40;88.40
25468;DHT22;13384;24.794;110.498;2023-07-16T07:18:05;36.50;87.30
25468;DHT22;13384;24.794;110.498;2023-07-16T07:20:49;36.50;87.90
25468;DHT22;13384;24.794;110.498;2023-07-16T07:23:21;36.30;86.80
25468;DHT22;13384;24.794;110.498;2023-07-16T07:25:53;36.40;87.60
25468;DHT22;13384;24.794;110.498;2023-07-16T07:28:24;36.50;86.20
25468;DHT22;13384;24.794;110.498;2023-07-16T07:30:56;36.80;86.00
25468;DHT22;13384;24.794;110.498;2023-07-16T07:33:28;37.10;84.40
25468;DHT22;13384;24.794;110.498;2023-07-16T07:36:03;37.00;82.60
25468;DHT22;13384;24.794;110.498;2023-07-16T07:38:42;37.10;81.30
25468;DHT22;13384;24.794;110.498;2023-07-16T07:41:47;37.30;80.80
25468;DHT22;13384;24.794;110.498;2023-07-16T07:44:28;37.20;81.40
25468;DHT22;13384;24.794;110.498;2023-07-16T07:46:59;36.80;84.50
25468;DHT22;13384;24.794;110.498;2023-07-16T07:49:31;36.70;82.00
25468;DHT22;13384;24.794;110.498;2023-07-16T07:52:03;36.70;82.20
25468;DHT22;13384;24.794;110.498;2023-07-16T07:54:36;36.60;82.20
25468;DHT22;13384;24.794;110.498;2023-07-16T07:57:08;36.80;82.60
25468;DHT22;13384;24.794;110.498;2023-07-16T07:59:40;36.80;81.60
25468;DHT22;13384;24.794;110.498;2023-07-16T08:02:11;37.10;80.20
25468;DHT22;13384;24.794;110.498;2023-07-16T08:04:44;37.10;79.90
25468;DHT22;13384;24.794;110.498;2023-07-16T08:07:17;36.70;79.40
25468;DHT22;13384;24.794;110.498;2023-07-16T08:09:49;36.50;82.50
25468;DHT22;13384;24.794;110.498;2023-07-16T08:12:20;36.20;81.70
25468;DHT22;13384;24.794;110.498;2023-07-16T08:14:51;36.00;82.40
25468;DHT22;13384;24.794;110.498;2023-07-16T08:17:23;35.80;83.80
25468;DHT22;13384;24.794;110.498;2023-07-16T08:19:55;35.70;84.00
25468;DHT22;13384;24.794;110.498;2023-07-16T08:22:37;35.90;86.00
25468;DHT22;13384;24.794;110.498;2023-07-16T08:25:22;36.30;83.30
25468;DHT22;13384;24.794;110.498;2023-07-16T08:27:53;36.40;82.80
25468;DHT22;13384;24.794;110.498;2023-07-16T08:30:25;36.20;83.30
25468;DHT22;13384;24.794;110.498;2023-07-16T08:32:57;36.10;82.90
25468;DHT22;13384;24.794;110.498;2023-07-16T08:35:28;36.00;85.00
25468;DHT22;13384;24.794;110.498;2023-07-16T08:38:00;35.80;86.20
25468;DHT22;13384;24.794;110.498;2023-07-16T08:40:41;35.80;84.70
25468;DHT22;13384;24.794;110.498;2023-07-16T08:43:13;35.70;84.50
25468;DHT22;13384;24.794;110.498;2023-07-16T08:45:46;35.60;85.00
25468;DHT22;13384;24.794;110.498;2023-07-16T08:48:18;35.60;85.30
25468;DHT22;13384;24.794;110.498;2023-07-16T08:50:51;35.70;83.90
25468;DHT22;13384;24.794;110.498;2023-07-16T08:53:22;36.00;83.80
25468;DHT22;13384;24.794;110.498;2023-07-16T08:55:55;36.20;82.60
25468;DHT22;13384;24.794;110.498;2023-07-16T08:58:28;36.20;83.90
25468;DHT22;13384;24.794;110.498;2023-07-16T09:01:01;36.10;86.70
25468;DHT22;13384;24.794;110.498;2023-07-16T09:03:36;35.90;84.30
25468;DHT22;13384;24.794;110.498;2023-07-16T09:06:21;35.70;85.00
25468;DHT22;13384;24.794;110.498;2023-07-16T09:08:53;35.50;85.60
25468;DHT22;13384;24.794;110.498;2023-07-16T09:11:26;35.40;86.00
25468;DHT22;13384;24.794;110.498;2023-07-16T09:13:57;35.30;87.30
25468;DHT22;13384;24.794;110.498;2023-07-16T09:16:34;35.10;86.60
25468;DHT22;13384;24.794;110.498;2023-07-16T09:19:10;35.00;87.30
25468;DHT22;13384;24.794;110.498;2023-07-16T09:21:46;35.00;90.00
25468;DHT22;13384;24.794;110.498;2023-07-16T09:24:30;34.80;90.40
25468;DHT22;13384;24.794;110.498;2023-07-16T09:27:03;34.70;90.30
25468;DHT22;13384;24.794;110.498;2023-07-16T09:29:37;34.70;91.30
25468;DHT22;13384;24.794;110.498;2023-07-16T09:32:09;34.60;91.60
25468;DHT22;13384;24.794;110.498;2023-07-16T09:34:40;34.60;91.70
25468;DHT22;13384;24.794;110.498;2023-07-16T09:37:13;34.70;90.70
25468;DHT22;13384;24.794;110.498;2023-07-16T09:39:46;34.80;89.50
25468;DHT22;13384;24.794;110.498;2023-07-16T09:42:18;35.00;89.50
25468;DHT22;13384;24.794;110.498;2023-07-16T09:44:53;35.20;90.10
25468;DHT22;13384;24.794;110.498;2023-07-16T09:47:26;35.40;88.00
25468;DHT22;13384;24.794;110.498;2023-07-16T09:49:57;35.50;88.00
25468;DHT22;13384;24.794;110.498;2023-07-16T09:52:30;35.60;85.80
25468;DHT22;13384;24.794;110.498;2023-07-16T09:55:03;35.70;86.40
25468;DHT22;13384;24.794;110.498;2023-07-16T09:57:37;35.70;85.20
25468;DHT22;13384;24.794;110.498;2023-07-16T10:00:13;35.90;84.60
25468;DHT22;13384;24.794;110.498;2023-07-16T10:02:46;35.80;84.10
25468;DHT22;13384;24.794;110.498;2023-07-16T10:05:25;35.80;83.50
25468;DHT22;13384;24.794;110.498;2023-07-16T10:07:58;35.70;82.80
25468;DHT22;13384;24.794;110.498;2023-07-16T10:11:01;35.60;80.90
25468;DHT22;13384;24.794;110.498;2023-07-16T10:13:34;35.50;81.00
25468;DHT22;13384;24.794;110.498;2023-07-16T10:16:05;35.20;81.20
25468;DHT22;13384;24.794;110.498;2023-07-16T10:18:39;35.20;80.30
25468;DHT22;13384;24.794;110.498;2023-07-16T10:21:10;35.00;81.80
25468;DHT22;13384;24.794;110.498;2023-07-16T10:23:43;34.90;81.60
25468;DHT22;13384;24.794;110.498;2023-07-16T10:26:15;34.90;81.20
25468;DHT22;13384;24.794;110.498;2023-07-16T10:28:48;34.80;80.00
25468;DHT22;13384;24.794;110.498;2023-07-16T10:31:24;34.70;85.80
25468;DHT22;13384;24.794;110.498;2023-07-16T10:34:03;34.50;80.70
25468;DHT22;13384;24.794;110.498;2023-07-16T10:36:41;34.50;79.60
25468;DHT22;13384;24.794;110.498;2023-07-16T10:39:14;34.40;79.80
25468;DHT22;13384;24.794;110.498;2023-07-16T10:41:46;34.30;80.90
25468;DHT22;13384;24.794;110.498;2023-07-16T10:44:17;34.20;81.60
25468;DHT22;13384;24.794;110.498;2023-07-16T10:46:48;34.10;83.40
25468;DHT22;13384;24.794;110.498;2023-07-16T10:49:28;34.10;82.60
25468;DHT22;13384;24.794;110.498;2023-07-16T10:52:06;34.00;81.60
25468;DHT22;13384;24.794;110.498;2023-07-16T10:54:39;33.90;82.20
25468;DHT22;13384;24.794;110.498;2023-07-16T10:57:12;33.80;83.30
25468;DHT22;13384;24.794;110.498;2023-07-16T10:59:44;33.70;83.70
25468;DHT22;13384;24.794;110.498;2023-07-16T11:02:16;33.60;86.10
25468;DHT22;13384;24.794;110.498;2023-07-16T11:04:49;33.40;85.60
25468;DHT22;13384;24.794;110.498;2023-07-16T11:07:21;33.40;86.10
25468;DHT22;13384;24.794;110.498;2023-07-16T11:09:55;33.30;83.50
25468;DHT22;13384;24.794;110.498;2023-07-16T11:12:28;33.20;85.20
25468;DHT22;13384;24.794;110.498;2023-07-16T11:14:59;33.20;86.70
25468;DHT22;13384;24.794;110.498;2023-07-16T11:17:31;33.10;86.00
25468;DHT22;13384;24.794;110.498;2023-07-16T11:20:03;33.10;86.30
25468;DHT22;13384;24.794;110.498;2023-07-16T11:22:38;33.00;88.40
25468;DHT22;13384;24.794;110.498;2023-07-16T11:25:13;33.00;87.70
25468;DHT22;13384;24.794;110.498;2023-07-16T11:27:44;32.90;88.20
25468;DHT22;13384;24.794;110.498;2023-07-16T11:30:29;32.80;86.50
25468;DHT22;13384;24.794;110.498;2023-07-16T11:33:14;32.80;88.70
25468;DHT22;13384;24.794;110.498;2023-07-16T11:35:48;32.70;87.20
25468;DHT22;13384;24.794;110.498;2023-07-16T11:38:20;32.60;88.60
25468;DHT22;13384;24.794;110.498;2023-07-16T11:40:51;32.50;89.50
25468;DHT22;13384;24.794;110.498;2023-07-16T11:43:23;32.40;90.20
25468;DHT22;13384;24.794;110.498;2023-07-16T11:45:54;32.30;90.50
25468;DHT22;13384;24.794;110.498;2023-07-16T11:48:26;32.20;90.40
25468;DHT22;13384;24.794;110.498;2023-07-16T11:50:57;32.00;91.20
25468;DHT22;13384;24.794;110.498;2023-07-16T11:53:29;32.00;91.50
25468;DHT22;13384;24.794;110.498;2023-07-16T11:56:00;31.90;91.60
25468;DHT22;13384;24.794;110.498;2023-07-16T11:58:34;31.80;92.60
25468;DHT22;13384;24.794;110.498;2023-07-16T12:01:06;31.80;93.30
25468;DHT22;13384;24.794;110.498;2023-07-16T12:03:37;31.60;93.90
25468;DHT22;13384;24.794;110.498;2023-07-16T12:06:09;31.50;94.50
25468;DHT22;13384;24.794;110.498;2023-07-16T12:08:41;31.50;95.00
25468;DHT22;13384;24.794;110.498;2023-07-16T12:11:13;31.40;95.90
25468;DHT22;13384;24.794;110.498;2023-07-16T12:13:44;31.30;96.20
25468;DHT22;13384;24.794;110.498;2023-07-16T12:16:16;31.20;97.70
25468;DHT22;13384;24.794;110.498;2023-07-16T12:18:49;31.10;96.30
25468;DHT22;13384;24.794;110.498;2023-07-16T12:21:20;31.00;96.10
25468;DHT22;13384;24.794;110.498;2023-07-16T12:23:51;31.00;96.00
25468;DHT22;13384;24.794;110.498;2023-07-16T12:26:22;31.00;96.30
25468;DHT22;13384;24.794;110.498;2023-07-16T12:28:54;30.90;98.00
25468;DHT22;13384;24.794;110.498;2023-07-16T12:31:25;30.90;97.70
25468;DHT22;13384;24.794;110.498;2023-07-16T12:33:57;30.80;97.00
25468;DHT22;13384;24.794;110.498;2023-07-16T12:36:32;30.80;96.70
25468;DHT22;13384;24.794;110.498;2023-07-16T12:39:03;30.70;98.60
25468;DHT22;13384;24.794;110.498;2023-07-16T12:41:35;30.70;99.20
25468;DHT22;13384;24.794;110.498;2023-07-16T12:44:06;30.60;99.30
25468;DHT22;13384;24.794;110.498;2023-07-16T12:46:37;30.40;99.90
25468;DHT22;13384;24.794;110.498;2023-07-16T12:49:09;30.30;99.90
25468;DHT22;13384;24.794;110.498;2023-07-16T12:51:41;30.30;99.60
25468;DHT22;13384;24.794;110.498;2023-07-16T12:54:12;30.30;99.90
25468;DHT22;13384;24.794;110.498;2023-07-16T12:56:44;30.30;99.90
25468;DHT22;13384;24.794;110.498;2023-07-16T12:59:15;30.20;99.90
25468;DHT22;13384;24.794;110.498;2023-07-16T13:01:48;30.20;99.90
25468;DHT22;13384;24.794;110.498;2023-07-16T13:04:21;30.10;99.90
25468;DHT22;13384;24.794;110.498;2023-07-16T13:06:53;30.10;99.90
25468;DHT22;13384;24.794;110.498;2023-07-16T13:09:36;30.00;99.70
25468;DHT22;13384;24.794;110.498;2023-07-16T13:12:08;30.00;99.90
25468;DHT22;13384;24.794;110.498;2023-07-16T13:14:40;30.10;99.90
25468;DHT22;13384;24.794;110.498;2023-07-16T13:17:11;30.10;99.90
25468;DHT22;13384;24.794;110.498;2023-07-16T13:19:43;29.90;99.90
25468;DHT22;13384;24.794;110.498;2023-07-16T13:22:16;29.70;99.90
25468;DHT22;13384;24.794;110.498;2023-07-16T13:24:47;29.80;99.90
25468;DHT22;13384;24.794;110.498;2023-07-16T13:27:22;29.80;99.90
25468;DHT22;13384;24.794;110.498;2023-07-16T13:29:56;29.70;99.90
25468;DHT22;13384;24.794;110.498;2023-07-16T13:32:28;29.60;99.90
25468;DHT22;13384;24.794;110.498;2023-07-16T13:35:00;29.60;99.90
25468;DHT22;13384;24.794;110.498;2023-07-16T13:37:32;29.70;99.90
25468;DHT22;13384;24.794;110.498;2023-07-16T13:40:13;29.80;99.90
25468;DHT22;13384;24.794;110.498;2023-07-16T13:42:44;29.50;99.90
25468;DHT22;13384;24.794;110.498;2023-07-16T13:45:28;29.40;99.90
25468;DHT22;13384;24.794;110.498;2023-07-16T13:48:03;29.50;99.90
25468;DHT22;13384;24.794;110.498;2023-07-16T13:50:35;29.60;99.90
25468;DHT22;13384;24.794;110.498;2023-07-16T13:53:07;29.70;99.90
25468;DHT22;13384;24.794;110.498;2023-07-16T13:55:52;29.80;99.90
25468;DHT22;13384;24.794;110.498;2023-07-16T13:58:35;29.70;99.90
25468;DHT22;13384;24.794;110.498;2023-07-16T14:01:10;29.80;99.90
25468;DHT22;13384;24.794;110.498;2023-07-16T14:03:41;29.80;99.90
25468;DHT22;13384;24.794;110.498;2023-07-16T14:06:13;29.60;99.90
25468;DHT22;13384;24.794;110.498;2023-07-16T14:08:45;29.60;99.90
25468;DHT22;13384;24.794;110.498;2023-07-16T14:11:16;29.50;99.90
25468;DHT22;13384;24.794;110.498;2023-07-16T14:14:02;29.10;99.90
25468;DHT22;13384;24.794;110.498;2023-07-16T14:16:34;29.20;99.90
25468;DHT22;13384;24.794;110.498;2023-07-16T14:19:05;29.40;99.90
25468;DHT22;13384;24.794;110.498;2023-07-16T14:21:36;29.40;99.90
25468;DHT22;13384;24.794;110.498;2023-07-16T14:24:11;29.10;99.90
25468;DHT22;13384;24.794;110.498;2023-07-16T14:26:45;29.10;99.90
25468;DHT22;13384;24.794;110.498;2023-07-16T14:29:19;28.90;99.90
25468;DHT22;13384;24.794;110.498;2023-07-16T14:31:50;29.00;99.90
25468;DHT22;13384;24.794;110.498;2023-07-16T14:34:25;29.10;99.90
25468;DHT22;13384;24.794;110.498;2023-07-16T14:36:57;29.20;99.90
25468;DHT22;13384;24.794;110.498;2023-07-16T14:39:30;29.10;99.90
25468;DHT22;13384;24.794;110.498;2023-07-16T14:42:03;29.10;99.90
25468;DHT22;13384;24.794;110.498;2023-07-16T14:44:36;29.20;99.90
25468;DHT22;13384;24.794;110.498;2023-07-16T14:47:07;29.10;99.90
25468;DHT22;13384;24.794;110.498;2023-07-16T14:49:42;29.10;99.90
25468;DHT22;13384;24.794;110.498;2023-07-16T14:52:17;29.10;99.90
25468;DHT22;13384;24.794;110.498;2023-07-16T14:54:49;29.00;99.90
25468;DHT22;13384;24.794;110.498;2023-07-16T14:57:27;29.00;99.90
25468;DHT22;13384;24.794;110.498;2023-07-16T14:59:58;29.00;99.90
25468;DHT22;13384;24.794;110.498;2023-07-16T15:02:33;29.00;99.90
25468;DHT22;13384;24.794;110.498;2023-07-16T15:05:05;28.90;99.90
25468;DHT22;13384;24.794;110.498;2023-07-16T15:07:40;28.90;99.90
25468;DHT22;13384;24.794;110.498;2023-07-16T15:10:12;28.90;99.90
25468;DHT22;13384;24.794;110.498;2023-07-16T15:12:43;29.00;99.90
25468;DHT22;13384;24.794;110.498;2023-07-16T15:15:23;29.00;99.90
25468;DHT22;13384;24.794;110.498;2023-07-16T15:17:54;29.00;99.90
25468;DHT22;13384;24.794;110.498;2023-07-16T15:20:26;28.90;99.90
25468;DHT22;13384;24.794;110.498;2023-07-16T15:22:57;28.90;99.90
25468;DHT22;13384;24.794;110.498;2023-07-16T15:25:29;28.90;99.90
25468;DHT22;13384;24.794;110.498;2023-07-16T15:28:03;28.90;99.90
25468;DHT22;13384;24.794;110.498;2023-07-16T15:30:38;29.10;99.90
25468;DHT22;13384;24.794;110.498;2023-07-16T15:33:10;29.00;99.90
25468;DHT22;13384;24.794;110.498;2023-07-16T15:35:42;29.00;99.90
25468;DHT22;13384;24.794;110.498;2023-07-16T15:38:13;28.90;99.90
25468;DHT22;13384;24.794;110.498;2023-07-16T15:40:47;28.90;99.90
25468;DHT22;13384;24.794;110.498;2023-07-16T15:43:19;29.00;99.90
25468;DHT22;13384;24.794;110.498;2023-07-16T15:45:50;29.00;99.90
25468;DHT22;13384;24.794;110.498;2023-07-16T15:48:22;29.00;99.90